EVRA

Riga International Airport

Riga, Latvia
METAR EVRA 252220Z 10004KT CAVOK 18/11 Q1027 NOSIG
Observed Flight Rules
May-25 @ 22:20 UTC (12 minutes ago) Visual Flight Rules
Wind Visibility Clouds
100° at 4 knots 10,000+ meters
  • Clear skies
Temperatures Readings
Current 18°C / 64°F
Dewpoint 11°C / 52°F
Humidity 64%
Altimeter 30.32" Hg
Pressure 1027 hPa
Elevation 10
METAR EVRA 252220Z 10004KT CAVOK 18/11 Q1027 NOSIG
Observed Flight Rules
May-25 @ 22:20 UTC
(12 minutes ago)
VFR
Wind Visibility
100° at 4 knots 10,000+ meters
Clouds
  • Clear skies
Temperature Dewpoint
18°C / 64°F 11°C / 52°F
Humidity Altimeter Pressure
64% 30.32" Hg 1027 hPa